sensor_id;sensor_type;location;lat;lon;timestamp;P1;durP1;ratioP1;P2;durP2;ratioP2
69434;SDS011;56625;54.322;18.582;2023-02-03T00:00:06;8.60;;;2.70;;
69434;SDS011;56625;54.322;18.582;2023-02-03T00:02:55;11.00;;;2.80;;
69434;SDS011;56625;54.322;18.582;2023-02-03T00:05:23;9.10;;;2.90;;
69434;SDS011;56625;54.322;18.582;2023-02-03T00:07:52;8.60;;;2.60;;
69434;SDS011;56625;54.322;18.582;2023-02-03T00:10:20;9.70;;;2.50;;
69434;SDS011;56625;54.322;18.582;2023-02-03T00:12:50;9.30;;;2.60;;
69434;SDS011;56625;54.322;18.582;2023-02-03T00:15:22;11.60;;;3.30;;
69434;SDS011;56625;54.322;18.582;2023-02-03T00:17:51;9.30;;;3.10;;
69434;SDS011;56625;54.322;18.582;2023-02-03T00:20:19;11.00;;;2.80;;
69434;SDS011;56625;54.322;18.582;2023-02-03T00:22:47;9.80;;;2.90;;
69434;SDS011;56625;54.322;18.582;2023-02-03T00:25:15;11.90;;;3.30;;
69434;SDS011;56625;54.322;18.582;2023-02-03T00:27:44;15.00;;;4.00;;
69434;SDS011;56625;54.322;18.582;2023-02-03T00:30:12;10.70;;;3.00;;
69434;SDS011;56625;54.322;18.582;2023-02-03T00:32:40;10.10;;;2.90;;
69434;SDS011;56625;54.322;18.582;2023-02-03T00:35:08;9.50;;;3.00;;
69434;SDS011;56625;54.322;18.582;2023-02-03T00:37:36;9.30;;;2.60;;
69434;SDS011;56625;54.322;18.582;2023-02-03T00:40:04;12.80;;;3.10;;
69434;SDS011;56625;54.322;18.582;2023-02-03T00:42:33;12.40;;;3.40;;
69434;SDS011;56625;54.322;18.582;2023-02-03T00:45:02;12.10;;;3.40;;
69434;SDS011;56625;54.322;18.582;2023-02-03T00:47:30;10.90;;;3.70;;
69434;SDS011;56625;54.322;18.582;2023-02-03T00:49:58;10.60;;;3.70;;
69434;SDS011;56625;54.322;18.582;2023-02-03T00:52:26;10.90;;;3.40;;
69434;SDS011;56625;54.322;18.582;2023-02-03T00:54:54;10.50;;;3.00;;
69434;SDS011;56625;54.322;18.582;2023-02-03T00:57:22;11.30;;;3.00;;
69434;SDS011;56625;54.322;18.582;2023-02-03T00:59:50;9.80;;;3.10;;
69434;SDS011;56625;54.322;18.582;2023-02-03T01:02:18;8.80;;;3.10;;
69434;SDS011;56625;54.322;18.582;2023-02-03T01:04:47;10.60;;;2.90;;
69434;SDS011;56625;54.322;18.582;2023-02-03T01:07:15;11.40;;;3.50;;
69434;SDS011;56625;54.322;18.582;2023-02-03T01:09:44;10.20;;;3.10;;
69434;SDS011;56625;54.322;18.582;2023-02-03T01:12:12;11.40;;;3.40;;
69434;SDS011;56625;54.322;18.582;2023-02-03T01:14:40;10.60;;;3.20;;
69434;SDS011;56625;54.322;18.582;2023-02-03T01:17:07;9.90;;;3.10;;
69434;SDS011;56625;54.322;18.582;2023-02-03T01:19:35;12.40;;;3.40;;
69434;SDS011;56625;54.322;18.582;2023-02-03T01:22:03;10.50;;;3.20;;
69434;SDS011;56625;54.322;18.582;2023-02-03T01:24:31;11.20;;;3.30;;
69434;SDS011;56625;54.322;18.582;2023-02-03T01:26:59;13.30;;;3.50;;
69434;SDS011;56625;54.322;18.582;2023-02-03T01:29:27;11.90;;;3.50;;
69434;SDS011;56625;54.322;18.582;2023-02-03T01:31:55;11.80;;;3.50;;
69434;SDS011;56625;54.322;18.582;2023-02-03T01:34:23;11.10;;;3.60;;
69434;SDS011;56625;54.322;18.582;2023-02-03T01:36:52;12.20;;;3.20;;
69434;SDS011;56625;54.322;18.582;2023-02-03T01:39:20;11.80;;;3.20;;
69434;SDS011;56625;54.322;18.582;2023-02-03T01:41:48;10.40;;;3.10;;
69434;SDS011;56625;54.322;18.582;2023-02-03T01:47:25;8.70;;;3.00;;
69434;SDS011;56625;54.322;18.582;2023-02-03T01:50:46;10.10;;;3.30;;
69434;SDS011;56625;54.322;18.582;2023-02-03T01:53:00;10.80;;;3.30;;
69434;SDS011;56625;54.322;18.582;2023-02-03T01:55:41;8.60;;;3.00;;
69434;SDS011;56625;54.322;18.582;2023-02-03T01:58:26;10.30;;;3.00;;
69434;SDS011;56625;54.322;18.582;2023-02-03T02:00:58;9.10;;;3.20;;
69434;SDS011;56625;54.322;18.582;2023-02-03T02:03:33;10.50;;;3.70;;
69434;SDS011;56625;54.322;18.582;2023-02-03T02:06:13;13.20;;;3.90;;
69434;SDS011;56625;54.322;18.582;2023-02-03T02:08:45;12.20;;;3.30;;
69434;SDS011;56625;54.322;18.582;2023-02-03T02:11:15;11.50;;;3.40;;
69434;SDS011;56625;54.322;18.582;2023-02-03T02:13:45;10.20;;;3.30;;
69434;SDS011;56625;54.322;18.582;2023-02-03T02:16:20;9.40;;;3.10;;
69434;SDS011;56625;54.322;18.582;2023-02-03T02:22:07;12.10;;;3.40;;
69434;SDS011;56625;54.322;18.582;2023-02-03T02:25:15;11.20;;;3.20;;
69434;SDS011;56625;54.322;18.582;2023-02-03T02:28:37;10.90;;;3.00;;
69434;SDS011;56625;54.322;18.582;2023-02-03T02:34:27;10.60;;;3.10;;
69434;SDS011;56625;54.322;18.582;2023-02-03T02:37:36;11.20;;;3.30;;
69434;SDS011;56625;54.322;18.582;2023-02-03T02:43:41;10.10;;;2.10;;
69434;SDS011;56625;54.322;18.582;2023-02-03T02:46:19;7.50;;;2.10;;
69434;SDS011;56625;54.322;18.582;2023-02-03T02:49:05;8.20;;;2.50;;
69434;SDS011;56625;54.322;18.582;2023-02-03T02:51:40;7.90;;;2.50;;
69434;SDS011;56625;54.322;18.582;2023-02-03T02:54:15;8.20;;;2.20;;
69434;SDS011;56625;54.322;18.582;2023-02-03T02:56:50;7.10;;;1.90;;
69434;SDS011;56625;54.322;18.582;2023-02-03T02:59:21;8.30;;;2.00;;
69434;SDS011;56625;54.322;18.582;2023-02-03T03:01:49;8.00;;;2.30;;
69434;SDS011;56625;54.322;18.582;2023-02-03T03:04:22;10.90;;;2.40;;
69434;SDS011;56625;54.322;18.582;2023-02-03T03:07:03;8.60;;;2.30;;
69434;SDS011;56625;54.322;18.582;2023-02-03T03:09:44;9.60;;;2.30;;
69434;SDS011;56625;54.322;18.582;2023-02-03T03:12:20;8.70;;;2.50;;
69434;SDS011;56625;54.322;18.582;2023-02-03T03:14:55;7.90;;;2.40;;
69434;SDS011;56625;54.322;18.582;2023-02-03T03:17:30;8.20;;;2.50;;
69434;SDS011;56625;54.322;18.582;2023-02-03T03:20:05;8.50;;;2.50;;
69434;SDS011;56625;54.322;18.582;2023-02-03T03:22:43;9.50;;;2.40;;
69434;SDS011;56625;54.322;18.582;2023-02-03T03:25:19;9.00;;;3.00;;
69434;SDS011;56625;54.322;18.582;2023-02-03T03:27:55;9.10;;;2.50;;
69434;SDS011;56625;54.322;18.582;2023-02-03T03:30:33;7.90;;;2.00;;
69434;SDS011;56625;54.322;18.582;2023-02-03T03:33:03;8.10;;;2.40;;
69434;SDS011;56625;54.322;18.582;2023-02-03T03:35:53;10.50;;;2.30;;
69434;SDS011;56625;54.322;18.582;2023-02-03T03:38:33;8.20;;;2.20;;
69434;SDS011;56625;54.322;18.582;2023-02-03T03:41:13;7.70;;;2.00;;
69434;SDS011;56625;54.322;18.582;2023-02-03T03:43:48;10.30;;;2.40;;
69434;SDS011;56625;54.322;18.582;2023-02-03T03:46:26;8.60;;;2.10;;
69434;SDS011;56625;54.322;18.582;2023-02-03T03:49:00;9.50;;;1.80;;
69434;SDS011;56625;54.322;18.582;2023-02-03T03:51:40;8.40;;;2.40;;
69434;SDS011;56625;54.322;18.582;2023-02-03T03:54:16;12.30;;;2.90;;
69434;SDS011;56625;54.322;18.582;2023-02-03T03:57:10;10.60;;;2.50;;
69434;SDS011;56625;54.322;18.582;2023-02-03T03:59:45;8.90;;;2.30;;
69434;SDS011;56625;54.322;18.582;2023-02-03T04:02:17;11.10;;;2.90;;
69434;SDS011;56625;54.322;18.582;2023-02-03T04:04:46;10.00;;;2.80;;
69434;SDS011;56625;54.322;18.582;2023-02-03T04:07:16;8.30;;;3.10;;
69434;SDS011;56625;54.322;18.582;2023-02-03T04:09:44;9.80;;;2.80;;
69434;SDS011;56625;54.322;18.582;2023-02-03T04:12:18;8.60;;;2.90;;
69434;SDS011;56625;54.322;18.582;2023-02-03T04:14:51;10.80;;;3.10;;
69434;SDS011;56625;54.322;18.582;2023-02-03T04:17:19;10.60;;;3.00;;
69434;SDS011;56625;54.322;18.582;2023-02-03T04:19:48;9.80;;;2.70;;
69434;SDS011;56625;54.322;18.582;2023-02-03T04:22:16;9.60;;;3.20;;
69434;SDS011;56625;54.322;18.582;2023-02-03T04:24:44;9.00;;;2.70;;
69434;SDS011;56625;54.322;18.582;2023-02-03T04:27:12;10.50;;;3.00;;
69434;SDS011;56625;54.322;18.582;2023-02-03T04:29:40;8.70;;;2.60;;
69434;SDS011;56625;54.322;18.582;2023-02-03T04:32:07;10.10;;;3.30;;
69434;SDS011;56625;54.322;18.582;2023-02-03T04:34:36;10.10;;;3.20;;
69434;SDS011;56625;54.322;18.582;2023-02-03T04:37:04;10.00;;;3.10;;
69434;SDS011;56625;54.322;18.582;2023-02-03T04:39:32;9.00;;;2.90;;
69434;SDS011;56625;54.322;18.582;2023-02-03T04:42:05;10.40;;;2.80;;
69434;SDS011;56625;54.322;18.582;2023-02-03T04:44:33;10.60;;;3.50;;
69434;SDS011;56625;54.322;18.582;2023-02-03T04:47:01;11.20;;;3.30;;
69434;SDS011;56625;54.322;18.582;2023-02-03T04:49:29;10.70;;;3.00;;
69434;SDS011;56625;54.322;18.582;2023-02-03T04:51:58;7.90;;;2.70;;
69434;SDS011;56625;54.322;18.582;2023-02-03T04:54:26;10.40;;;2.70;;
69434;SDS011;56625;54.322;18.582;2023-02-03T04:56:54;7.50;;;2.20;;
69434;SDS011;56625;54.322;18.582;2023-02-03T04:59:22;7.90;;;2.20;;
69434;SDS011;56625;54.322;18.582;2023-02-03T05:01:50;8.90;;;2.20;;
69434;SDS011;56625;54.322;18.582;2023-02-03T05:04:19;7.80;;;2.10;;
69434;SDS011;56625;54.322;18.582;2023-02-03T05:06:47;7.10;;;2.20;;
69434;SDS011;56625;54.322;18.582;2023-02-03T05:09:15;10.00;;;2.30;;
69434;SDS011;56625;54.322;18.582;2023-02-03T05:11:43;9.00;;;2.60;;
69434;SDS011;56625;54.322;18.582;2023-02-03T05:14:11;8.50;;;2.00;;
69434;SDS011;56625;54.322;18.582;2023-02-03T05:16:39;8.10;;;2.50;;
69434;SDS011;56625;54.322;18.582;2023-02-03T05:19:08;8.80;;;2.20;;
69434;SDS011;56625;54.322;18.582;2023-02-03T05:21:36;8.10;;;2.10;;
69434;SDS011;56625;54.322;18.582;2023-02-03T05:24:04;7.40;;;2.10;;
69434;SDS011;56625;54.322;18.582;2023-02-03T05:26:34;10.30;;;2.50;;
69434;SDS011;56625;54.322;18.582;2023-02-03T05:29:02;6.70;;;2.10;;
69434;SDS011;56625;54.322;18.582;2023-02-03T05:31:31;8.40;;;1.90;;
69434;SDS011;56625;54.322;18.582;2023-02-03T05:34:00;7.00;;;1.80;;
69434;SDS011;56625;54.322;18.582;2023-02-03T05:36:28;8.80;;;2.50;;
69434;SDS011;56625;54.322;18.582;2023-02-03T05:38:56;8.80;;;2.50;;
69434;SDS011;56625;54.322;18.582;2023-02-03T05:41:24;11.30;;;2.70;;
69434;SDS011;56625;54.322;18.582;2023-02-03T05:44:11;10.20;;;2.20;;
69434;SDS011;56625;54.322;18.582;2023-02-03T05:46:39;8.30;;;2.20;;
69434;SDS011;56625;54.322;18.582;2023-02-03T05:49:07;7.40;;;2.40;;
69434;SDS011;56625;54.322;18.582;2023-02-03T05:51:35;9.00;;;2.60;;
69434;SDS011;56625;54.322;18.582;2023-02-03T05:54:03;9.10;;;2.10;;
69434;SDS011;56625;54.322;18.582;2023-02-03T05:56:31;9.20;;;2.80;;
69434;SDS011;56625;54.322;18.582;2023-02-03T05:58:59;6.50;;;2.00;;
69434;SDS011;56625;54.322;18.582;2023-02-03T06:01:27;6.60;;;1.90;;
69434;SDS011;56625;54.322;18.582;2023-02-03T06:03:55;8.10;;;2.50;;
69434;SDS011;56625;54.322;18.582;2023-02-03T06:06:23;6.50;;;1.50;;
69434;SDS011;56625;54.322;18.582;2023-02-03T06:08:51;5.60;;;1.10;;
69434;SDS011;56625;54.322;18.582;2023-02-03T06:11:22;9.80;;;2.60;;
69434;SDS011;56625;54.322;18.582;2023-02-03T06:13:51;11.40;;;3.00;;
69434;SDS011;56625;54.322;18.582;2023-02-03T06:16:19;8.40;;;2.60;;
69434;SDS011;56625;54.322;18.582;2023-02-03T06:18:47;9.00;;;3.30;;
69434;SDS011;56625;54.322;18.582;2023-02-03T06:21:15;9.70;;;3.40;;
69434;SDS011;56625;54.322;18.582;2023-02-03T06:23:43;10.60;;;3.60;;
69434;SDS011;56625;54.322;18.582;2023-02-03T06:26:11;11.80;;;3.70;;
69434;SDS011;56625;54.322;18.582;2023-02-03T06:28:40;11.70;;;4.40;;
69434;SDS011;56625;54.322;18.582;2023-02-03T06:31:08;11.20;;;3.80;;
69434;SDS011;56625;54.322;18.582;2023-02-03T06:33:36;16.20;;;5.60;;
69434;SDS011;56625;54.322;18.582;2023-02-03T06:36:05;13.80;;;5.00;;
69434;SDS011;56625;54.322;18.582;2023-02-03T06:38:33;13.70;;;4.90;;
69434;SDS011;56625;54.322;18.582;2023-02-03T06:41:01;12.10;;;5.20;;
69434;SDS011;56625;54.322;18.582;2023-02-03T06:43:29;17.50;;;6.80;;
69434;SDS011;56625;54.322;18.582;2023-02-03T06:45:57;13.80;;;5.70;;
69434;SDS011;56625;54.322;18.582;2023-02-03T06:48:25;16.30;;;5.70;;
69434;SDS011;56625;54.322;18.582;2023-02-03T06:50:53;16.70;;;5.90;;
69434;SDS011;56625;54.322;18.582;2023-02-03T06:53:22;15.60;;;5.40;;
69434;SDS011;56625;54.322;18.582;2023-02-03T06:55:50;14.30;;;5.30;;
69434;SDS011;56625;54.322;18.582;2023-02-03T06:58:18;14.80;;;5.60;;
69434;SDS011;56625;54.322;18.582;2023-02-03T07:00:46;13.10;;;5.00;;
69434;SDS011;56625;54.322;18.582;2023-02-03T07:03:14;12.60;;;5.00;;
69434;SDS011;56625;54.322;18.582;2023-02-03T07:05:42;9.20;;;2.70;;
69434;SDS011;56625;54.322;18.582;2023-02-03T07:08:10;10.60;;;2.80;;
69434;SDS011;56625;54.322;18.582;2023-02-03T07:10:38;11.20;;;3.90;;
69434;SDS011;56625;54.322;18.582;2023-02-03T07:13:06;13.00;;;4.80;;
69434;SDS011;56625;54.322;18.582;2023-02-03T07:15:34;11.70;;;4.40;;
69434;SDS011;56625;54.322;18.582;2023-02-03T07:18:03;10.60;;;3.50;;
69434;SDS011;56625;54.322;18.582;2023-02-03T07:20:31;10.90;;;4.10;;
69434;SDS011;56625;54.322;18.582;2023-02-03T07:22:59;11.20;;;4.10;;
69434;SDS011;56625;54.322;18.582;2023-02-03T07:25:27;10.90;;;3.80;;
69434;SDS011;56625;54.322;18.582;2023-02-03T07:27:55;12.00;;;4.00;;
69434;SDS011;56625;54.322;18.582;2023-02-03T07:30:23;9.90;;;3.50;;
69434;SDS011;56625;54.322;18.582;2023-02-03T07:32:52;14.90;;;4.60;;
69434;SDS011;56625;54.322;18.582;2023-02-03T07:35:20;14.20;;;4.20;;
69434;SDS011;56625;54.322;18.582;2023-02-03T07:37:48;12.30;;;3.50;;
69434;SDS011;56625;54.322;18.582;2023-02-03T07:40:17;10.70;;;3.50;;
69434;SDS011;56625;54.322;18.582;2023-02-03T07:42:47;11.30;;;4.00;;
69434;SDS011;56625;54.322;18.582;2023-02-03T07:45:16;11.20;;;4.10;;
69434;SDS011;56625;54.322;18.582;2023-02-03T07:47:45;11.50;;;3.00;;
69434;SDS011;56625;54.322;18.582;2023-02-03T07:50:13;10.50;;;3.90;;
69434;SDS011;56625;54.322;18.582;2023-02-03T07:52:41;9.80;;;3.70;;
69434;SDS011;56625;54.322;18.582;2023-02-03T07:55:09;13.90;;;4.30;;
69434;SDS011;56625;54.322;18.582;2023-02-03T07:57:37;11.50;;;4.50;;
69434;SDS011;56625;54.322;18.582;2023-02-03T08:00:11;13.90;;;5.10;;
69434;SDS011;56625;54.322;18.582;2023-02-03T08:02:42;12.20;;;4.40;;
69434;SDS011;56625;54.322;18.582;2023-02-03T08:05:10;7.30;;;2.50;;
69434;SDS011;56625;54.322;18.582;2023-02-03T08:07:39;10.20;;;3.50;;
69434;SDS011;56625;54.322;18.582;2023-02-03T08:10:09;12.60;;;3.70;;
69434;SDS011;56625;54.322;18.582;2023-02-03T08:12:38;11.10;;;3.50;;
69434;SDS011;56625;54.322;18.582;2023-02-03T08:15:07;8.90;;;2.80;;
69434;SDS011;56625;54.322;18.582;2023-02-03T08:17:36;10.40;;;3.50;;
69434;SDS011;56625;54.322;18.582;2023-02-03T08:20:08;10.50;;;3.30;;
69434;SDS011;56625;54.322;18.582;2023-02-03T08:22:37;10.30;;;3.30;;
69434;SDS011;56625;54.322;18.582;2023-02-03T08:25:05;9.30;;;2.90;;
69434;SDS011;56625;54.322;18.582;2023-02-03T08:27:34;11.20;;;3.70;;
69434;SDS011;56625;54.322;18.582;2023-02-03T08:30:02;10.80;;;3.20;;
69434;SDS011;56625;54.322;18.582;2023-02-03T08:32:31;9.40;;;2.90;;
69434;SDS011;56625;54.322;18.582;2023-02-03T08:35:00;6.10;;;1.40;;
69434;SDS011;56625;54.322;18.582;2023-02-03T08:37:46;11.70;;;3.80;;
69434;SDS011;56625;54.322;18.582;2023-02-03T08:40:14;8.90;;;2.60;;
69434;SDS011;56625;54.322;18.582;2023-02-03T08:42:42;13.60;;;4.60;;
69434;SDS011;56625;54.322;18.582;2023-02-03T08:45:10;11.70;;;3.50;;
69434;SDS011;56625;54.322;18.582;2023-02-03T08:47:38;13.90;;;4.40;;
69434;SDS011;56625;54.322;18.582;2023-02-03T08:50:08;11.00;;;3.30;;
69434;SDS011;56625;54.322;18.582;2023-02-03T08:52:36;9.70;;;3.10;;
69434;SDS011;56625;54.322;18.582;2023-02-03T08:55:05;10.30;;;2.90;;
69434;SDS011;56625;54.322;18.582;2023-02-03T08:57:34;12.10;;;3.50;;
69434;SDS011;56625;54.322;18.582;2023-02-03T09:00:04;11.20;;;3.80;;
69434;SDS011;56625;54.322;18.582;2023-02-03T09:02:33;10.30;;;3.80;;
69434;SDS011;56625;54.322;18.582;2023-02-03T09:05:01;12.20;;;4.00;;
69434;SDS011;56625;54.322;18.582;2023-02-03T09:07:29;12.40;;;4.00;;
69434;SDS011;56625;54.322;18.582;2023-02-03T09:09:57;13.20;;;4.10;;
69434;SDS011;56625;54.322;18.582;2023-02-03T09:12:25;12.80;;;4.80;;
69434;SDS011;56625;54.322;18.582;2023-02-03T09:14:53;14.60;;;3.90;;
69434;SDS011;56625;54.322;18.582;2023-02-03T09:17:21;16.60;;;4.90;;
69434;SDS011;56625;54.322;18.582;2023-02-03T09:19:49;13.00;;;5.00;;
69434;SDS011;56625;54.322;18.582;2023-02-03T09:22:17;11.90;;;4.00;;
69434;SDS011;56625;54.322;18.582;2023-02-03T09:24:45;11.90;;;4.70;;
69434;SDS011;56625;54.322;18.582;2023-02-03T09:27:15;9.40;;;3.00;;
69434;SDS011;56625;54.322;18.582;2023-02-03T09:29:43;10.10;;;3.40;;
69434;SDS011;56625;54.322;18.582;2023-02-03T09:32:11;11.20;;;3.40;;
69434;SDS011;56625;54.322;18.582;2023-02-03T09:34:42;10.20;;;3.20;;
69434;SDS011;56625;54.322;18.582;2023-02-03T09:37:10;11.20;;;4.30;;
69434;SDS011;56625;54.322;18.582;2023-02-03T09:39:38;9.10;;;3.20;;
69434;SDS011;56625;54.322;18.582;2023-02-03T09:48:27;13.50;;;4.50;;
69434;SDS011;56625;54.322;18.582;2023-02-03T09:51:03;14.40;;;4.90;;
69434;SDS011;56625;54.322;18.582;2023-02-03T09:53:44;11.40;;;4.00;;
69434;SDS011;56625;54.322;18.582;2023-02-03T09:56:25;14.70;;;5.70;;
69434;SDS011;56625;54.322;18.582;2023-02-03T09:58:56;11.90;;;3.30;;
69434;SDS011;56625;54.322;18.582;2023-02-03T10:01:29;5.80;;;1.50;;
69434;SDS011;56625;54.322;18.582;2023-02-03T10:04:31;12.70;;;5.20;;
69434;SDS011;56625;54.322;18.582;2023-02-03T10:11:03;12.10;;;3.80;;
69434;SDS011;56625;54.322;18.582;2023-02-03T10:17:01;8.00;;;2.40;;
69434;SDS011;56625;54.322;18.582;2023-02-03T10:19:41;10.00;;;2.40;;
69434;SDS011;56625;54.322;18.582;2023-02-03T10:22:16;12.00;;;4.30;;
69434;SDS011;56625;54.322;18.582;2023-02-03T10:27:33;10.40;;;3.20;;
69434;SDS011;56625;54.322;18.582;2023-02-03T10:30:31;11.70;;;4.20;;
69434;SDS011;56625;54.322;18.582;2023-02-03T10:33:09;12.80;;;3.70;;
69434;SDS011;56625;54.322;18.582;2023-02-03T10:35:50;10.70;;;4.00;;
69434;SDS011;56625;54.322;18.582;2023-02-03T10:41:11;13.00;;;4.40;;
69434;SDS011;56625;54.322;18.582;2023-02-03T10:43:41;10.80;;;4.40;;
69434;SDS011;56625;54.322;18.582;2023-02-03T10:46:35;11.80;;;4.40;;
69434;SDS011;56625;54.322;18.582;2023-02-03T10:49:06;14.00;;;5.80;;
69434;SDS011;56625;54.322;18.582;2023-02-03T10:51:50;15.60;;;6.40;;
69434;SDS011;56625;54.322;18.582;2023-02-03T10:57:05;15.60;;;5.80;;
69434;SDS011;56625;54.322;18.582;2023-02-03T10:59:44;10.40;;;4.20;;
69434;SDS011;56625;54.322;18.582;2023-02-03T11:02:25;11.60;;;4.50;;
69434;SDS011;56625;54.322;18.582;2023-02-03T11:07:49;14.90;;;6.20;;
69434;SDS011;56625;54.322;18.582;2023-02-03T11:10:27;9.60;;;4.00;;
69434;SDS011;56625;54.322;18.582;2023-02-03T11:13:16;13.90;;;5.80;;
69434;SDS011;56625;54.322;18.582;2023-02-03T11:18:35;7.90;;;2.90;;
69434;SDS011;56625;54.322;18.582;2023-02-03T11:21:20;12.00;;;5.10;;
69434;SDS011;56625;54.322;18.582;2023-02-03T11:26:48;17.50;;;6.20;;
69434;SDS011;56625;54.322;18.582;2023-02-03T11:29:27;13.40;;;4.30;;
69434;SDS011;56625;54.322;18.582;2023-02-03T11:32:00;11.10;;;4.50;;
69434;SDS011;56625;54.322;18.582;2023-02-03T11:34:35;10.40;;;3.50;;
69434;SDS011;56625;54.322;18.582;2023-02-03T11:37:25;10.80;;;3.50;;
69434;SDS011;56625;54.322;18.582;2023-02-03T11:40:12;10.10;;;4.40;;
69434;SDS011;56625;54.322;18.582;2023-02-03T11:45:26;12.00;;;4.90;;
69434;SDS011;56625;54.322;18.582;2023-02-03T11:48:00;12.50;;;4.10;;
69434;SDS011;56625;54.322;18.582;2023-02-03T12:03:38;14.80;;;5.80;;
69434;SDS011;56625;54.322;18.582;2023-02-03T12:06:40;9.10;;;3.30;;
69434;SDS011;56625;54.322;18.582;2023-02-03T12:12:39;9.50;;;3.00;;
69434;SDS011;56625;54.322;18.582;2023-02-03T12:29:48;11.60;;;4.30;;
69434;SDS011;56625;54.322;18.582;2023-02-03T12:32:36;14.90;;;7.20;;
69434;SDS011;56625;54.322;18.582;2023-02-03T12:35:40;13.70;;;4.50;;
69434;SDS011;56625;54.322;18.582;2023-02-03T12:38:46;12.20;;;5.00;;
69434;SDS011;56625;54.322;18.582;2023-02-03T12:41:29;17.00;;;8.10;;
69434;SDS011;56625;54.322;18.582;2023-02-03T12:46:59;17.50;;;5.90;;
69434;SDS011;56625;54.322;18.582;2023-02-03T12:50:06;17.60;;;6.70;;
69434;SDS011;56625;54.322;18.582;2023-02-03T12:52:51;13.60;;;6.40;;
69434;SDS011;56625;54.322;18.582;2023-02-03T12:55:46;14.50;;;5.50;;
69434;SDS011;56625;54.322;18.582;2023-02-03T12:58:27;9.90;;;4.10;;
69434;SDS011;56625;54.322;18.582;2023-02-03T13:01:07;17.00;;;7.00;;
69434;SDS011;56625;54.322;18.582;2023-02-03T13:09:37;18.60;;;7.60;;
69434;SDS011;56625;54.322;18.582;2023-02-03T13:18:40;10.90;;;3.40;;
69434;SDS011;56625;54.322;18.582;2023-02-03T13:21:11;11.80;;;4.10;;
69434;SDS011;56625;54.322;18.582;2023-02-03T13:23:42;11.60;;;3.70;;
69434;SDS011;56625;54.322;18.582;2023-02-03T13:26:41;10.40;;;4.30;;
69434;SDS011;56625;54.322;18.582;2023-02-03T13:32:33;9.90;;;3.50;;
69434;SDS011;56625;54.322;18.582;2023-02-03T13:35:24;11.20;;;4.20;;
69434;SDS011;56625;54.322;18.582;2023-02-03T13:41:15;8.30;;;2.50;;
69434;SDS011;56625;54.322;18.582;2023-02-03T13:43:49;11.00;;;3.90;;
69434;SDS011;56625;54.322;18.582;2023-02-03T13:46:38;14.10;;;4.70;;
69434;SDS011;56625;54.322;18.582;2023-02-03T13:49:07;12.80;;;5.40;;
69434;SDS011;56625;54.322;18.582;2023-02-03T13:51:42;11.40;;;4.80;;
69434;SDS011;56625;54.322;18.582;2023-02-03T13:54:31;9.20;;;2.70;;
69434;SDS011;56625;54.322;18.582;2023-02-03T13:57:20;12.80;;;5.80;;
69434;SDS011;56625;54.322;18.582;2023-02-03T13:59:54;14.20;;;6.50;;
69434;SDS011;56625;54.322;18.582;2023-02-03T14:04:56;8.40;;;2.60;;
69434;SDS011;56625;54.322;18.582;2023-02-03T14:07:35;11.30;;;4.80;;
69434;SDS011;56625;54.322;18.582;2023-02-03T14:10:21;13.00;;;4.80;;
69434;SDS011;56625;54.322;18.582;2023-02-03T14:18:00;13.00;;;5.60;;
69434;SDS011;56625;54.322;18.582;2023-02-03T14:20:38;15.00;;;5.50;;
69434;SDS011;56625;54.322;18.582;2023-02-03T14:23:14;20.00;;;7.70;;
69434;SDS011;56625;54.322;18.582;2023-02-03T14:25:49;19.70;;;10.10;;
69434;SDS011;56625;54.322;18.582;2023-02-03T14:28:42;15.10;;;5.80;;
69434;SDS011;56625;54.322;18.582;2023-02-03T14:31:23;13.60;;;5.80;;
69434;SDS011;56625;54.322;18.582;2023-02-03T14:34:02;15.10;;;6.20;;
69434;SDS011;56625;54.322;18.582;2023-02-03T14:36:45;14.40;;;6.60;;
69434;SDS011;56625;54.322;18.582;2023-02-03T14:39:44;22.40;;;10.50;;
69434;SDS011;56625;54.322;18.582;2023-02-03T14:46:31;17.40;;;7.40;;
69434;SDS011;56625;54.322;18.582;2023-02-03T14:52:32;11.90;;;5.30;;
69434;SDS011;56625;54.322;18.582;2023-02-03T14:55:36;19.90;;;9.90;;
69434;SDS011;56625;54.322;18.582;2023-02-03T14:58:26;10.80;;;4.00;;
69434;SDS011;56625;54.322;18.582;2023-02-03T15:01:03;15.20;;;7.10;;
69434;SDS011;56625;54.322;18.582;2023-02-03T15:03:34;15.10;;;6.50;;
69434;SDS011;56625;54.322;18.582;2023-02-03T15:06:04;17.90;;;8.20;;
69434;SDS011;56625;54.322;18.582;2023-02-03T15:08:35;16.60;;;8.10;;
69434;SDS011;56625;54.322;18.582;2023-02-03T15:11:27;20.10;;;8.50;;
69434;SDS011;56625;54.322;18.582;2023-02-03T15:14:14;14.10;;;5.90;;
69434;SDS011;56625;54.322;18.582;2023-02-03T15:16:59;13.80;;;5.60;;
69434;SDS011;56625;54.322;18.582;2023-02-03T15:19:34;20.80;;;9.20;;
69434;SDS011;56625;54.322;18.582;2023-02-03T15:22:28;10.70;;;4.10;;
69434;SDS011;56625;54.322;18.582;2023-02-03T15:24:59;13.30;;;5.70;;
69434;SDS011;56625;54.322;18.582;2023-02-03T15:27:31;15.30;;;5.90;;
69434;SDS011;56625;54.322;18.582;2023-02-03T15:30:14;14.20;;;5.70;;
69434;SDS011;56625;54.322;18.582;2023-02-03T15:33:03;10.70;;;4.70;;
69434;SDS011;56625;54.322;18.582;2023-02-03T15:35:37;10.40;;;4.20;;
69434;SDS011;56625;54.322;18.582;2023-02-03T15:38:49;13.40;;;5.00;;
69434;SDS011;56625;54.322;18.582;2023-02-03T15:41:23;15.50;;;6.60;;
69434;SDS011;56625;54.322;18.582;2023-02-03T15:44:00;12.50;;;7.10;;
69434;SDS011;56625;54.322;18.582;2023-02-03T15:49:17;13.00;;;5.30;;
69434;SDS011;56625;54.322;18.582;2023-02-03T15:52:06;11.10;;;5.00;;
69434;SDS011;56625;54.322;18.582;2023-02-03T15:54:43;16.00;;;6.70;;
69434;SDS011;56625;54.322;18.582;2023-02-03T15:57:25;15.40;;;6.50;;
69434;SDS011;56625;54.322;18.582;2023-02-03T15:59:58;14.90;;;6.60;;
69434;SDS011;56625;54.322;18.582;2023-02-03T16:02:43;14.80;;;6.10;;
69434;SDS011;56625;54.322;18.582;2023-02-03T16:05:32;12.00;;;4.90;;
69434;SDS011;56625;54.322;18.582;2023-02-03T16:08:36;15.80;;;6.50;;
69434;SDS011;56625;54.322;18.582;2023-02-03T16:11:39;16.00;;;7.60;;
69434;SDS011;56625;54.322;18.582;2023-02-03T16:14:34;11.20;;;4.70;;
69434;SDS011;56625;54.322;18.582;2023-02-03T16:17:02;16.10;;;6.20;;
69434;SDS011;56625;54.322;18.582;2023-02-03T16:19:33;10.10;;;4.30;;
69434;SDS011;56625;54.322;18.582;2023-02-03T16:22:26;13.80;;;4.70;;
69434;SDS011;56625;54.322;18.582;2023-02-03T16:25:20;13.60;;;5.10;;
69434;SDS011;56625;54.322;18.582;2023-02-03T16:28:20;12.80;;;5.00;;
69434;SDS011;56625;54.322;18.582;2023-02-03T16:31:13;9.40;;;3.60;;
69434;SDS011;56625;54.322;18.582;2023-02-03T16:34:18;12.10;;;4.20;;
69434;SDS011;56625;54.322;18.582;2023-02-03T16:37:25;11.50;;;4.40;;
69434;SDS011;56625;54.322;18.582;2023-02-03T16:40:29;7.80;;;2.90;;
69434;SDS011;56625;54.322;18.582;2023-02-03T16:43:16;12.90;;;5.80;;
69434;SDS011;56625;54.322;18.582;2023-02-03T16:46:10;15.00;;;5.60;;
69434;SDS011;56625;54.322;18.582;2023-02-03T16:48:57;13.50;;;5.00;;
69434;SDS011;56625;54.322;18.582;2023-02-03T16:51:44;13.60;;;5.00;;
69434;SDS011;56625;54.322;18.582;2023-02-03T16:54:16;14.30;;;5.80;;
69434;SDS011;56625;54.322;18.582;2023-02-03T16:56:44;14.90;;;5.20;;
69434;SDS011;56625;54.322;18.582;2023-02-03T16:59:12;14.40;;;5.40;;
69434;SDS011;56625;54.322;18.582;2023-02-03T17:01:40;12.20;;;4.20;;
69434;SDS011;56625;54.322;18.582;2023-02-03T17:04:09;10.60;;;3.40;;
69434;SDS011;56625;54.322;18.582;2023-02-03T17:06:41;14.20;;;5.30;;